sensor_id;sensor_type;location;lat;lon;timestamp;pressure;altitude;pressure_sealevel;temperature;humidity
28927;BME280;16038;47.692;9.400;2023-04-26T00:00:28;96618.94;;;6.31;100.00
28927;BME280;16038;47.692;9.400;2023-04-26T00:02:54;96611.78;;;6.26;100.00
28927;BME280;16038;47.692;9.400;2023-04-26T00:05:19;96610.34;;;6.29;100.00
28927;BME280;16038;47.692;9.400;2023-04-26T00:07:45;96611.22;;;6.33;100.00
28927;BME280;16038;47.692;9.400;2023-04-26T00:10:10;96615.22;;;6.36;100.00
28927;BME280;16038;47.692;9.400;2023-04-26T00:12:36;96618.38;;;6.38;100.00
28927;BME280;16038;47.692;9.400;2023-04-26T00:15:04;96614.63;;;6.42;100.00
28927;BME280;16038;47.692;9.400;2023-04-26T00:17:29;96623.22;;;6.44;100.00
28927;BME280;16038;47.692;9.400;2023-04-26T00:19:55;96624.28;;;6.40;100.00
28927;BME280;16038;47.692;9.400;2023-04-26T00:22:22;96627.31;;;6.38;100.00
28927;BME280;16038;47.692;9.400;2023-04-26T00:24:47;96631.16;;;6.37;100.00
28927;BME280;16038;47.692;9.400;2023-04-26T00:27:12;96627.78;;;6.40;100.00
28927;BME280;16038;47.692;9.400;2023-04-26T00:29:38;96628.66;;;6.44;100.00
28927;BME280;16038;47.692;9.400;2023-04-26T00:32:03;96624.81;;;6.45;100.00
28927;BME280;16038;47.692;9.400;2023-04-26T00:34:32;96639.22;;;6.46;100.00
28927;BME280;16038;47.692;9.400;2023-04-26T00:36:58;96636.38;;;6.42;100.00
28927;BME280;16038;47.692;9.400;2023-04-26T00:39:25;96633.78;;;6.34;100.00
28927;BME280;16038;47.692;9.400;2023-04-26T00:41:50;96636.75;;;6.28;100.00
28927;BME280;16038;47.692;9.400;2023-04-26T00:44:16;96641.38;;;6.28;100.00
28927;BME280;16038;47.692;9.400;2023-04-26T00:46:41;96639.13;;;6.18;100.00
28927;BME280;16038;47.692;9.400;2023-04-26T00:49:07;96638.41;;;6.08;100.00
28927;BME280;16038;47.692;9.400;2023-04-26T00:51:32;96636.16;;;5.98;100.00
28927;BME280;16038;47.692;9.400;2023-04-26T00:53:58;96639.94;;;5.85;100.00
28927;BME280;16038;47.692;9.400;2023-04-26T00:56:23;96639.03;;;5.81;100.00
28927;BME280;16038;47.692;9.400;2023-04-26T00:58:49;96636.56;;;5.88;100.00
28927;BME280;16038;47.692;9.400;2023-04-26T01:01:14;96642.91;;;5.92;100.00
28927;BME280;16038;47.692;9.400;2023-04-26T01:03:40;96629.69;;;6.03;100.00
28927;BME280;16038;47.692;9.400;2023-04-26T01:06:05;96637.06;;;6.02;100.00
28927;BME280;16038;47.692;9.400;2023-04-26T01:08:31;96634.56;;;5.97;100.00
28927;BME280;16038;47.692;9.400;2023-04-26T01:10:56;96639.59;;;5.86;100.00
28927;BME280;16038;47.692;9.400;2023-04-26T01:13:22;96629.16;;;5.76;100.00
28927;BME280;16038;47.692;9.400;2023-04-26T01:15:48;96630.41;;;5.66;100.00
28927;BME280;16038;47.692;9.400;2023-04-26T01:18:14;96629.69;;;5.57;100.00
28927;BME280;16038;47.692;9.400;2023-04-26T01:20:40;96625.94;;;5.49;100.00
28927;BME280;16038;47.692;9.400;2023-04-26T01:23:06;96620.94;;;5.39;100.00
28927;BME280;16038;47.692;9.400;2023-04-26T01:25:31;96622.03;;;5.38;100.00
28927;BME280;16038;47.692;9.400;2023-04-26T01:27:56;96633.53;;;5.23;100.00
28927;BME280;16038;47.692;9.400;2023-04-26T01:30:21;96637.41;;;5.01;100.00
28927;BME280;16038;47.692;9.400;2023-04-26T01:32:47;96633.34;;;4.86;100.00
28927;BME280;16038;47.692;9.400;2023-04-26T01:35:12;96640.31;;;4.74;100.00
28927;BME280;16038;47.692;9.400;2023-04-26T01:37:37;96630.50;;;4.61;100.00
28927;BME280;16038;47.692;9.400;2023-04-26T01:40:03;96631.34;;;4.53;100.00
28927;BME280;16038;47.692;9.400;2023-04-26T01:42:31;96635.72;;;4.45;100.00
28927;BME280;16038;47.692;9.400;2023-04-26T01:44:56;96638.88;;;4.47;100.00
28927;BME280;16038;47.692;9.400;2023-04-26T01:47:21;96644.81;;;4.40;100.00
28927;BME280;16038;47.692;9.400;2023-04-26T01:49:47;96641.13;;;4.45;100.00
28927;BME280;16038;47.692;9.400;2023-04-26T01:52:12;96637.69;;;4.57;100.00
28927;BME280;16038;47.692;9.400;2023-04-26T01:54:37;96628.00;;;4.56;100.00
28927;BME280;16038;47.692;9.400;2023-04-26T01:57:02;96634.34;;;4.60;100.00
28927;BME280;16038;47.692;9.400;2023-04-26T01:59:28;96636.72;;;4.62;100.00
28927;BME280;16038;47.692;9.400;2023-04-26T02:01:53;96638.78;;;4.65;100.00
28927;BME280;16038;47.692;9.400;2023-04-26T02:04:19;96644.59;;;4.54;100.00
28927;BME280;16038;47.692;9.400;2023-04-26T02:06:44;96638.09;;;4.47;100.00
28927;BME280;16038;47.692;9.400;2023-04-26T02:09:09;96637.59;;;4.45;100.00
28927;BME280;16038;47.692;9.400;2023-04-26T02:11:35;96633.47;;;4.47;100.00
28927;BME280;16038;47.692;9.400;2023-04-26T02:14:00;96635.66;;;4.24;100.00
28927;BME280;16038;47.692;9.400;2023-04-26T02:16:26;96624.38;;;4.13;100.00
28927;BME280;16038;47.692;9.400;2023-04-26T02:18:51;96623.63;;;4.04;100.00
28927;BME280;16038;47.692;9.400;2023-04-26T02:21:17;96616.16;;;4.01;100.00
28927;BME280;16038;47.692;9.400;2023-04-26T02:23:43;96611.03;;;3.99;100.00
28927;BME280;16038;47.692;9.400;2023-04-26T02:26:08;96611.50;;;4.01;100.00
28927;BME280;16038;47.692;9.400;2023-04-26T02:28:33;96607.56;;;3.99;100.00
28927;BME280;16038;47.692;9.400;2023-04-26T02:31:00;96606.59;;;4.04;100.00
28927;BME280;16038;47.692;9.400;2023-04-26T02:33:25;96605.16;;;3.97;100.00
28927;BME280;16038;47.692;9.400;2023-04-26T02:35:51;96604.06;;;3.98;100.00
28927;BME280;16038;47.692;9.400;2023-04-26T02:38:16;96609.47;;;3.98;100.00
28927;BME280;16038;47.692;9.400;2023-04-26T02:40:41;96615.97;;;4.06;100.00
28927;BME280;16038;47.692;9.400;2023-04-26T02:43:07;96610.94;;;4.26;100.00
28927;BME280;16038;47.692;9.400;2023-04-26T02:45:39;96613.56;;;4.43;100.00
28927;BME280;16038;47.692;9.400;2023-04-26T02:48:04;96613.91;;;4.33;100.00
28927;BME280;16038;47.692;9.400;2023-04-26T02:50:30;96608.72;;;4.19;100.00
28927;BME280;16038;47.692;9.400;2023-04-26T02:52:55;96616.50;;;4.29;100.00
28927;BME280;16038;47.692;9.400;2023-04-26T02:55:20;96615.25;;;4.48;100.00
28927;BME280;16038;47.692;9.400;2023-04-26T02:57:46;96614.28;;;4.52;100.00
28927;BME280;16038;47.692;9.400;2023-04-26T03:00:11;96613.28;;;4.57;100.00
28927;BME280;16038;47.692;9.400;2023-04-26T03:02:38;96607.06;;;4.56;100.00
28927;BME280;16038;47.692;9.400;2023-04-26T03:05:03;96607.81;;;4.66;100.00
28927;BME280;16038;47.692;9.400;2023-04-26T03:07:28;96608.06;;;4.73;100.00
28927;BME280;16038;47.692;9.400;2023-04-26T03:09:54;96613.81;;;4.71;100.00
28927;BME280;16038;47.692;9.400;2023-04-26T03:12:19;96611.16;;;4.63;100.00
28927;BME280;16038;47.692;9.400;2023-04-26T03:14:44;96604.34;;;4.56;100.00
28927;BME280;16038;47.692;9.400;2023-04-26T03:17:10;96597.88;;;4.49;100.00
28927;BME280;16038;47.692;9.400;2023-04-26T03:19:35;96601.47;;;4.32;100.00
28927;BME280;16038;47.692;9.400;2023-04-26T03:22:00;96598.03;;;4.22;100.00
28927;BME280;16038;47.692;9.400;2023-04-26T03:24:26;96605.84;;;4.24;100.00
28927;BME280;16038;47.692;9.400;2023-04-26T03:26:51;96606.00;;;4.19;100.00
28927;BME280;16038;47.692;9.400;2023-04-26T03:29:16;96610.59;;;4.27;100.00
28927;BME280;16038;47.692;9.400;2023-04-26T03:31:41;96608.44;;;4.42;100.00
28927;BME280;16038;47.692;9.400;2023-04-26T03:34:07;96616.03;;;4.27;100.00
28927;BME280;16038;47.692;9.400;2023-04-26T03:36:32;96609.66;;;4.23;100.00
28927;BME280;16038;47.692;9.400;2023-04-26T03:38:58;96611.44;;;4.19;100.00
28927;BME280;16038;47.692;9.400;2023-04-26T03:41:23;96616.56;;;4.12;100.00
28927;BME280;16038;47.692;9.400;2023-04-26T03:43:49;96619.94;;;4.09;100.00
28927;BME280;16038;47.692;9.400;2023-04-26T03:46:14;96615.28;;;4.18;100.00
28927;BME280;16038;47.692;9.400;2023-04-26T03:48:40;96616.84;;;4.19;100.00
28927;BME280;16038;47.692;9.400;2023-04-26T03:51:05;96608.25;;;4.17;100.00
28927;BME280;16038;47.692;9.400;2023-04-26T03:53:31;96614.09;;;4.28;100.00
28927;BME280;16038;47.692;9.400;2023-04-26T03:55:56;96618.47;;;4.41;100.00
28927;BME280;16038;47.692;9.400;2023-04-26T03:58:22;96612.69;;;4.51;100.00
28927;BME280;16038;47.692;9.400;2023-04-26T04:00:47;96611.66;;;4.65;100.00
28927;BME280;16038;47.692;9.400;2023-04-26T04:03:12;96621.63;;;4.73;100.00
28927;BME280;16038;47.692;9.400;2023-04-26T04:05:38;96618.41;;;4.79;100.00
28927;BME280;16038;47.692;9.400;2023-04-26T04:08:03;96624.28;;;4.82;100.00
28927;BME280;16038;47.692;9.400;2023-04-26T04:10:29;96622.91;;;4.75;100.00
28927;BME280;16038;47.692;9.400;2023-04-26T04:12:54;96619.94;;;4.68;100.00
28927;BME280;16038;47.692;9.400;2023-04-26T04:15:20;96607.91;;;4.48;100.00
28927;BME280;16038;47.692;9.400;2023-04-26T04:17:45;96612.66;;;4.30;100.00
28927;BME280;16038;47.692;9.400;2023-04-26T04:20:11;96613.03;;;4.20;100.00
28927;BME280;16038;47.692;9.400;2023-04-26T04:22:37;96609.88;;;4.18;100.00
28927;BME280;16038;47.692;9.400;2023-04-26T04:25:07;96611.75;;;4.17;100.00
28927;BME280;16038;47.692;9.400;2023-04-26T04:27:36;96606.38;;;4.09;100.00
28927;BME280;16038;47.692;9.400;2023-04-26T04:30:05;96609.09;;;4.09;100.00
28927;BME280;16038;47.692;9.400;2023-04-26T04:32:32;96610.22;;;4.08;100.00
28927;BME280;16038;47.692;9.400;2023-04-26T04:34:58;96603.19;;;4.07;100.00
28927;BME280;16038;47.692;9.400;2023-04-26T04:37:23;96611.00;;;4.08;100.00
28927;BME280;16038;47.692;9.400;2023-04-26T04:39:50;96615.94;;;4.15;100.00
28927;BME280;16038;47.692;9.400;2023-04-26T04:42:16;96614.47;;;4.17;100.00
28927;BME280;16038;47.692;9.400;2023-04-26T04:44:41;96613.34;;;4.18;100.00
28927;BME280;16038;47.692;9.400;2023-04-26T04:47:07;96620.03;;;4.21;100.00
28927;BME280;16038;47.692;9.400;2023-04-26T04:49:32;96618.06;;;4.30;100.00
28927;BME280;16038;47.692;9.400;2023-04-26T04:51:57;96620.19;;;4.54;100.00
28927;BME280;16038;47.692;9.400;2023-04-26T04:54:23;96619.19;;;4.80;100.00
28927;BME280;16038;47.692;9.400;2023-04-26T04:56:48;96625.59;;;4.96;100.00
28927;BME280;16038;47.692;9.400;2023-04-26T04:59:14;96625.16;;;4.94;100.00
28927;BME280;16038;47.692;9.400;2023-04-26T05:01:39;96623.47;;;5.02;100.00
28927;BME280;16038;47.692;9.400;2023-04-26T05:04:04;96612.22;;;5.12;100.00
28927;BME280;16038;47.692;9.400;2023-04-26T05:06:30;96628.81;;;5.32;100.00
28927;BME280;16038;47.692;9.400;2023-04-26T05:08:56;96625.94;;;5.49;100.00
28927;BME280;16038;47.692;9.400;2023-04-26T05:11:22;96616.03;;;5.66;100.00
28927;BME280;16038;47.692;9.400;2023-04-26T05:13:47;96618.63;;;5.29;100.00
28927;BME280;16038;47.692;9.400;2023-04-26T05:16:13;96613.50;;;4.94;100.00
28927;BME280;16038;47.692;9.400;2023-04-26T05:18:38;96616.28;;;4.85;100.00
28927;BME280;16038;47.692;9.400;2023-04-26T05:21:04;96624.88;;;5.08;100.00
28927;BME280;16038;47.692;9.400;2023-04-26T05:23:29;96625.81;;;5.46;100.00
28927;BME280;16038;47.692;9.400;2023-04-26T05:25:55;96624.69;;;5.92;100.00
28927;BME280;16038;47.692;9.400;2023-04-26T05:28:20;96631.53;;;6.23;100.00
28927;BME280;16038;47.692;9.400;2023-04-26T05:30:46;96626.53;;;6.50;100.00
28927;BME280;16038;47.692;9.400;2023-04-26T05:33:11;96637.72;;;6.73;100.00
28927;BME280;16038;47.692;9.400;2023-04-26T05:35:36;96630.19;;;6.95;100.00
28927;BME280;16038;47.692;9.400;2023-04-26T05:38:02;96626.34;;;7.52;100.00
28927;BME280;16038;47.692;9.400;2023-04-26T05:40:28;96635.91;;;7.74;100.00
28927;BME280;16038;47.692;9.400;2023-04-26T05:42:53;96643.91;;;7.99;100.00
28927;BME280;16038;47.692;9.400;2023-04-26T05:45:19;96636.53;;;8.15;100.00
28927;BME280;16038;47.692;9.400;2023-04-26T05:47:44;96636.00;;;8.57;100.00
28927;BME280;16038;47.692;9.400;2023-04-26T05:50:11;96637.63;;;9.33;100.00
28927;BME280;16038;47.692;9.400;2023-04-26T05:52:37;96645.31;;;9.08;100.00
28927;BME280;16038;47.692;9.400;2023-04-26T05:55:02;96645.25;;;10.55;100.00
28927;BME280;16038;47.692;9.400;2023-04-26T05:57:28;96646.03;;;12.07;91.68
28927;BME280;16038;47.692;9.400;2023-04-26T05:59:53;96651.09;;;13.09;80.04
28927;BME280;16038;47.692;9.400;2023-04-26T06:02:19;96646.09;;;13.29;77.82
28927;BME280;16038;47.692;9.400;2023-04-26T06:04:44;96655.59;;;13.31;74.97
28927;BME280;16038;47.692;9.400;2023-04-26T06:07:10;96653.63;;;12.73;82.34
28927;BME280;16038;47.692;9.400;2023-04-26T06:09:35;96656.28;;;12.14;86.26
28927;BME280;16038;47.692;9.400;2023-04-26T06:12:01;96653.13;;;11.74;81.98
28927;BME280;16038;47.692;9.400;2023-04-26T06:14:26;96652.84;;;9.53;99.07
28927;BME280;16038;47.692;9.400;2023-04-26T06:16:51;96654.16;;;10.25;93.61
28927;BME280;16038;47.692;9.400;2023-04-26T06:19:17;96660.84;;;9.62;99.12
28927;BME280;16038;47.692;9.400;2023-04-26T06:21:42;96666.22;;;10.44;94.21
28927;BME280;16038;47.692;9.400;2023-04-26T06:24:07;96656.19;;;9.86;100.00
28927;BME280;16038;47.692;9.400;2023-04-26T06:26:33;96657.47;;;10.35;94.90
28927;BME280;16038;47.692;9.400;2023-04-26T06:28:58;96647.19;;;10.78;98.33
28927;BME280;16038;47.692;9.400;2023-04-26T06:31:24;96651.63;;;9.31;100.00
28927;BME280;16038;47.692;9.400;2023-04-26T06:33:49;96656.75;;;9.33;100.00
28927;BME280;16038;47.692;9.400;2023-04-26T06:36:14;96657.47;;;9.69;100.00
28927;BME280;16038;47.692;9.400;2023-04-26T06:38:40;96650.97;;;8.99;100.00
28927;BME280;16038;47.692;9.400;2023-04-26T06:41:05;96651.69;;;8.45;100.00
28927;BME280;16038;47.692;9.400;2023-04-26T06:43:31;96655.75;;;10.76;100.00
28927;BME280;16038;47.692;9.400;2023-04-26T06:45:56;96665.69;;;14.37;74.27
28927;BME280;16038;47.692;9.400;2023-04-26T06:48:21;96670.41;;;14.18;72.68
28927;BME280;16038;47.692;9.400;2023-04-26T06:50:46;96674.53;;;10.51;90.12
28927;BME280;16038;47.692;9.400;2023-04-26T06:53:12;96676.28;;;9.74;100.00
28927;BME280;16038;47.692;9.400;2023-04-26T06:55:37;96676.53;;;8.91;100.00
28927;BME280;16038;47.692;9.400;2023-04-26T06:58:02;96671.63;;;9.35;100.00
28927;BME280;16038;47.692;9.400;2023-04-26T07:00:28;96669.97;;;10.12;97.42
28927;BME280;16038;47.692;9.400;2023-04-26T07:02:54;96670.59;;;9.83;98.34
28927;BME280;16038;47.692;9.400;2023-04-26T07:05:19;96671.06;;;10.77;95.91
28927;BME280;16038;47.692;9.400;2023-04-26T07:07:44;96672.41;;;13.26;76.79
28927;BME280;16038;47.692;9.400;2023-04-26T07:10:10;96667.25;;;14.12;69.00
28927;BME280;16038;47.692;9.400;2023-04-26T07:12:35;96666.38;;;15.56;60.45
28927;BME280;16038;47.692;9.400;2023-04-26T07:15:01;96662.38;;;15.60;60.23
28927;BME280;16038;47.692;9.400;2023-04-26T07:17:26;96668.00;;;13.95;67.33
28927;BME280;16038;47.692;9.400;2023-04-26T07:19:52;96665.13;;;12.86;73.37
28927;BME280;16038;47.692;9.400;2023-04-26T07:22:17;96665.63;;;11.41;76.47
28927;BME280;16038;47.692;9.400;2023-04-26T07:24:42;96667.09;;;9.63;92.54
28927;BME280;16038;47.692;9.400;2023-04-26T07:27:07;96665.44;;;11.57;85.32
28927;BME280;16038;47.692;9.400;2023-04-26T07:29:33;96660.66;;;12.67;76.82
28927;BME280;16038;47.692;9.400;2023-04-26T07:31:58;96667.91;;;12.00;76.63
28927;BME280;16038;47.692;9.400;2023-04-26T07:34:23;96659.72;;;10.79;82.74
28927;BME280;16038;47.692;9.400;2023-04-26T07:36:49;96651.66;;;8.96;98.73
28927;BME280;16038;47.692;9.400;2023-04-26T07:39:14;96653.19;;;9.71;95.58
28927;BME280;16038;47.692;9.400;2023-04-26T07:41:40;96659.34;;;9.88;96.97
28927;BME280;16038;47.692;9.400;2023-04-26T07:44:05;96650.53;;;10.41;92.81
28927;BME280;16038;47.692;9.400;2023-04-26T07:46:34;96653.19;;;10.14;93.55
28927;BME280;16038;47.692;9.400;2023-04-26T07:48:59;96648.59;;;10.68;93.42
28927;BME280;16038;47.692;9.400;2023-04-26T07:51:25;96645.03;;;11.89;83.09
28927;BME280;16038;47.692;9.400;2023-04-26T07:53:51;96643.84;;;13.42;73.54
28927;BME280;16038;47.692;9.400;2023-04-26T07:56:16;96648.03;;;14.81;62.80
28927;BME280;16038;47.692;9.400;2023-04-26T07:58:42;96650.50;;;12.74;68.37
28927;BME280;16038;47.692;9.400;2023-04-26T08:01:07;96644.66;;;12.31;72.42
28927;BME280;16038;47.692;9.400;2023-04-26T08:03:35;96653.84;;;11.71;75.75
28927;BME280;16038;47.692;9.400;2023-04-26T08:06:01;96646.81;;;12.08;70.85
28927;BME280;16038;47.692;9.400;2023-04-26T08:08:26;96655.63;;;11.90;71.24
28927;BME280;16038;47.692;9.400;2023-04-26T08:10:52;96650.75;;;12.10;72.85
28927;BME280;16038;47.692;9.400;2023-04-26T08:13:17;96652.97;;;10.99;77.05
28927;BME280;16038;47.692;9.400;2023-04-26T08:15:43;96648.19;;;11.23;75.33
28927;BME280;16038;47.692;9.400;2023-04-26T08:18:08;96652.53;;;11.58;73.89
28927;BME280;16038;47.692;9.400;2023-04-26T08:20:33;96652.91;;;11.90;75.29
28927;BME280;16038;47.692;9.400;2023-04-26T08:22:58;96649.53;;;11.70;78.19
28927;BME280;16038;47.692;9.400;2023-04-26T08:25:24;96643.91;;;10.95;83.94
28927;BME280;16038;47.692;9.400;2023-04-26T08:27:50;96648.81;;;11.13;83.31
28927;BME280;16038;47.692;9.400;2023-04-26T08:30:16;96646.25;;;11.27;78.87
28927;BME280;16038;47.692;9.400;2023-04-26T08:32:42;96644.69;;;11.26;76.69
28927;BME280;16038;47.692;9.400;2023-04-26T08:35:07;96656.22;;;11.39;77.30
28927;BME280;16038;47.692;9.400;2023-04-26T08:37:34;96646.63;;;11.56;77.01
28927;BME280;16038;47.692;9.400;2023-04-26T08:40:00;96651.53;;;12.55;77.48
28927;BME280;16038;47.692;9.400;2023-04-26T08:42:26;96656.25;;;14.16;66.38
28927;BME280;16038;47.692;9.400;2023-04-26T08:44:52;96656.13;;;15.49;61.47
28927;BME280;16038;47.692;9.400;2023-04-26T08:47:18;96658.59;;;16.14;58.05
28927;BME280;16038;47.692;9.400;2023-04-26T08:49:46;96650.25;;;16.73;54.66
28927;BME280;16038;47.692;9.400;2023-04-26T08:52:17;96657.66;;;16.91;52.94
28927;BME280;16038;47.692;9.400;2023-04-26T08:54:48;96657.38;;;16.18;51.96
28927;BME280;16038;47.692;9.400;2023-04-26T08:57:13;96661.34;;;15.25;53.21
28927;BME280;16038;47.692;9.400;2023-04-26T08:59:40;96661.75;;;15.09;57.22
28927;BME280;16038;47.692;9.400;2023-04-26T09:02:06;96652.28;;;13.92;59.02
28927;BME280;16038;47.692;9.400;2023-04-26T09:04:31;96656.25;;;14.30;59.81
28927;BME280;16038;47.692;9.400;2023-04-26T09:06:59;96656.91;;;13.66;64.55
28927;BME280;16038;47.692;9.400;2023-04-26T09:09:24;96658.66;;;14.64;60.61
28927;BME280;16038;47.692;9.400;2023-04-26T09:11:52;96658.19;;;14.05;61.66
28927;BME280;16038;47.692;9.400;2023-04-26T09:14:18;96659.84;;;14.63;59.03
28927;BME280;16038;47.692;9.400;2023-04-26T09:16:43;96665.34;;;14.81;58.46
28927;BME280;16038;47.692;9.400;2023-04-26T09:19:09;96665.72;;;14.72;56.67
28927;BME280;16038;47.692;9.400;2023-04-26T09:21:39;96664.56;;;14.74;55.91
28927;BME280;16038;47.692;9.400;2023-04-26T09:24:06;96663.38;;;14.35;54.83
28927;BME280;16038;47.692;9.400;2023-04-26T09:26:31;96660.59;;;14.35;56.68
28927;BME280;16038;47.692;9.400;2023-04-26T09:29:16;96648.69;;;15.35;55.19
28927;BME280;16038;47.692;9.400;2023-04-26T09:31:45;96646.53;;;16.98;50.09
28927;BME280;16038;47.692;9.400;2023-04-26T09:34:11;96651.13;;;15.04;52.87
28927;BME280;16038;47.692;9.400;2023-04-26T09:36:49;96640.28;;;16.87;49.99
28927;BME280;16038;47.692;9.400;2023-04-26T09:39:37;96650.91;;;17.30;49.68
28927;BME280;16038;47.692;9.400;2023-04-26T09:42:02;96645.31;;;18.80;44.83
28927;BME280;16038;47.692;9.400;2023-04-26T09:44:28;96634.59;;;16.03;49.99
28927;BME280;16038;47.692;9.400;2023-04-26T09:47:04;96638.00;;;16.74;47.11
28927;BME280;16038;47.692;9.400;2023-04-26T09:49:42;96635.28;;;16.18;46.70
28927;BME280;16038;47.692;9.400;2023-04-26T09:52:08;96636.25;;;18.25;43.41
28927;BME280;16038;47.692;9.400;2023-04-26T09:54:40;96636.34;;;18.96;40.87
28927;BME280;16038;47.692;9.400;2023-04-26T09:57:06;96637.75;;;19.68;41.89
28927;BME280;16038;47.692;9.400;2023-04-26T09:59:41;96632.03;;;19.55;39.42
28927;BME280;16038;47.692;9.400;2023-04-26T10:02:21;96640.88;;;20.27;35.50
28927;BME280;16038;47.692;9.400;2023-04-26T10:04:47;96640.88;;;19.90;39.15
28927;BME280;16038;47.692;9.400;2023-04-26T10:07:13;96639.44;;;19.22;39.10
28927;BME280;16038;47.692;9.400;2023-04-26T10:09:42;96647.25;;;20.07;38.30
28927;BME280;16038;47.692;9.400;2023-04-26T10:12:11;96637.59;;;19.35;38.95
28927;BME280;16038;47.692;9.400;2023-04-26T10:14:36;96638.00;;;18.15;40.43
28927;BME280;16038;47.692;9.400;2023-04-26T10:17:02;96635.53;;;16.91;43.28
28927;BME280;16038;47.692;9.400;2023-04-26T10:19:27;96632.34;;;15.80;45.44
28927;BME280;16038;47.692;9.400;2023-04-26T10:21:53;96644.09;;;15.95;45.66
28927;BME280;16038;47.692;9.400;2023-04-26T10:24:23;96641.53;;;15.56;47.01
28927;BME280;16038;47.692;9.400;2023-04-26T10:26:49;96629.38;;;15.28;47.65
28927;BME280;16038;47.692;9.400;2023-04-26T10:29:25;96629.44;;;15.10;48.12
28927;BME280;16038;47.692;9.400;2023-04-26T10:34:27;96624.72;;;15.07;46.80
28927;BME280;16038;47.692;9.400;2023-04-26T10:37:09;96621.44;;;15.48;46.00
28927;BME280;16038;47.692;9.400;2023-04-26T10:39:34;96621.84;;;15.43;46.38
28927;BME280;16038;47.692;9.400;2023-04-26T10:44:48;96614.94;;;14.27;48.73
28927;BME280;16038;47.692;9.400;2023-04-26T10:47:20;96608.22;;;15.92;45.64
28927;BME280;16038;47.692;9.400;2023-04-26T10:49:45;96604.44;;;17.14;42.28
28927;BME280;16038;47.692;9.400;2023-04-26T10:52:13;96606.34;;;17.20;41.64
28927;BME280;16038;47.692;9.400;2023-04-26T10:54:55;96604.69;;;17.27;39.41
28927;BME280;16038;47.692;9.400;2023-04-26T10:57:22;96599.19;;;17.88;39.31
28927;BME280;16038;47.692;9.400;2023-04-26T11:05:36;96600.47;;;17.80;38.44
28927;BME280;16038;47.692;9.400;2023-04-26T11:08:03;96596.56;;;16.22;40.63
28927;BME280;16038;47.692;9.400;2023-04-26T11:10:28;96596.25;;;16.61;41.68
28927;BME280;16038;47.692;9.400;2023-04-26T11:13:00;96596.44;;;16.85;41.96
28927;BME280;16038;47.692;9.400;2023-04-26T11:15:27;96584.84;;;16.56;40.67
28927;BME280;16038;47.692;9.400;2023-04-26T11:17:52;96588.13;;;16.40;41.20
28927;BME280;16038;47.692;9.400;2023-04-26T11:20:18;96584.38;;;16.65;39.95
28927;BME280;16038;47.692;9.400;2023-04-26T11:22:43;96576.66;;;15.93;41.45
28927;BME280;16038;47.692;9.400;2023-04-26T11:25:10;96577.53;;;15.79;42.97
28927;BME280;16038;47.692;9.400;2023-04-26T11:27:37;96573.06;;;15.99;41.11
28927;BME280;16038;47.692;9.400;2023-04-26T11:30:02;96577.56;;;15.64;41.89
28927;BME280;16038;47.692;9.400;2023-04-26T11:32:29;96569.50;;;15.99;42.93
28927;BME280;16038;47.692;9.400;2023-04-26T11:34:54;96579.09;;;13.87;45.07
28927;BME280;16038;47.692;9.400;2023-04-26T11:37:19;96560.19;;;14.83;45.29
28927;BME280;16038;47.692;9.400;2023-04-26T11:39:45;96562.13;;;15.81;44.31
28927;BME280;16038;47.692;9.400;2023-04-26T11:42:10;96565.78;;;16.20;42.05
28927;BME280;16038;47.692;9.400;2023-04-26T11:44:36;96565.28;;;16.36;41.78
28927;BME280;16038;47.692;9.400;2023-04-26T11:47:02;96562.81;;;15.96;42.30
28927;BME280;16038;47.692;9.400;2023-04-26T11:49:31;96558.09;;;15.93;39.97
28927;BME280;16038;47.692;9.400;2023-04-26T11:51:56;96566.34;;;15.97;40.10
28927;BME280;16038;47.692;9.400;2023-04-26T11:54:28;96558.13;;;15.90;40.29
28927;BME280;16038;47.692;9.400;2023-04-26T11:56:55;96561.13;;;16.10;40.17
28927;BME280;16038;47.692;9.400;2023-04-26T11:59:27;96559.16;;;16.14;39.93
28927;BME280;16038;47.692;9.400;2023-04-26T12:01:56;96555.94;;;16.19;39.55
28927;BME280;16038;47.692;9.400;2023-04-26T12:04:28;96559.88;;;16.21;38.09
28927;BME280;16038;47.692;9.400;2023-04-26T12:06:53;96559.47;;;16.23;38.33
28927;BME280;16038;47.692;9.400;2023-04-26T12:09:39;96559.47;;;16.23;37.60
28927;BME280;16038;47.692;9.400;2023-04-26T12:12:04;96567.06;;;15.41;37.83
28927;BME280;16038;47.692;9.400;2023-04-26T12:14:33;96571.63;;;13.91;40.88
28927;BME280;16038;47.692;9.400;2023-04-26T12:16:59;96573.50;;;13.51;42.26
28927;BME280;16038;47.692;9.400;2023-04-26T12:19:26;96559.75;;;14.91;40.74
28927;BME280;16038;47.692;9.400;2023-04-26T12:21:51;96575.06;;;15.92;39.31
28927;BME280;16038;47.692;9.400;2023-04-26T12:24:24;96566.66;;;16.58;38.31
28927;BME280;16038;47.692;9.400;2023-04-26T12:26:49;96560.09;;;16.41;37.72
28927;BME280;16038;47.692;9.400;2023-04-26T12:29:15;96564.06;;;16.82;36.99
28927;BME280;16038;47.692;9.400;2023-04-26T12:31:40;96572.31;;;17.24;36.17
28927;BME280;16038;47.692;9.400;2023-04-26T12:34:05;96572.53;;;17.06;34.92
28927;BME280;16038;47.692;9.400;2023-04-26T12:36:31;96573.34;;;15.45;37.56
28927;BME280;16038;47.692;9.400;2023-04-26T12:38:56;96563.78;;;16.24;37.57
28927;BME280;16038;47.692;9.400;2023-04-26T12:41:22;96562.19;;;15.74;37.94
28927;BME280;16038;47.692;9.400;2023-04-26T12:43:47;96559.34;;;15.85;37.43
28927;BME280;16038;47.692;9.400;2023-04-26T12:46:12;96563.91;;;16.06;37.31
28927;BME280;16038;47.692;9.400;2023-04-26T12:48:37;96551.03;;;16.41;37.00
28927;BME280;16038;47.692;9.400;2023-04-26T12:51:03;96558.09;;;16.42;36.93
28927;BME280;16038;47.692;9.400;2023-04-26T12:53:28;96557.81;;;16.29;36.23
28927;BME280;16038;47.692;9.400;2023-04-26T12:55:53;96551.44;;;16.77;36.53
28927;BME280;16038;47.692;9.400;2023-04-26T12:58:19;96545.22;;;16.28;37.63
28927;BME280;16038;47.692;9.400;2023-04-26T13:00:45;96547.81;;;16.46;36.63
28927;BME280;16038;47.692;9.400;2023-04-26T13:03:11;96541.69;;;16.20;37.70
28927;BME280;16038;47.692;9.400;2023-04-26T13:05:38;96535.00;;;16.21;37.97